sensor_id;sensor_type;location;lat;lon;timestamp;P1;durP1;ratioP1;P2;durP2;ratioP2
9675;SDS011;4876;42.656;23.292;2024-03-23T00:54:15;11.68;;;5.30;;
9675;SDS011;4876;42.656;23.292;2024-03-23T00:56:40;10.73;;;5.50;;
9675;SDS011;4876;42.656;23.292;2024-03-23T00:59:06;10.23;;;4.90;;
9675;SDS011;4876;42.656;23.292;2024-03-23T01:01:31;10.57;;;4.88;;
9675;SDS011;4876;42.656;23.292;2024-03-23T01:03:57;14.10;;;5.20;;
9675;SDS011;4876;42.656;23.292;2024-03-23T01:06:22;10.27;;;4.57;;
9675;SDS011;4876;42.656;23.292;2024-03-23T01:08:48;11.05;;;4.03;;
9675;SDS011;4876;42.656;23.292;2024-03-23T01:11:13;10.48;;;4.47;;
9675;SDS011;4876;42.656;23.292;2024-03-23T01:13:39;8.52;;;4.40;;
9675;SDS011;4876;42.656;23.292;2024-03-23T01:16:05;12.38;;;4.93;;
9675;SDS011;4876;42.656;23.292;2024-03-23T01:18:30;11.52;;;4.55;;
9675;SDS011;4876;42.656;23.292;2024-03-23T01:20:56;9.10;;;4.28;;
9675;SDS011;4876;42.656;23.292;2024-03-23T01:23:21;8.48;;;4.00;;
9675;SDS011;4876;42.656;23.292;2024-03-23T01:25:53;9.73;;;4.63;;
9675;SDS011;4876;42.656;23.292;2024-03-23T01:28:20;11.32;;;4.63;;
9675;SDS011;4876;42.656;23.292;2024-03-23T01:30:46;8.50;;;4.22;;
9675;SDS011;4876;42.656;23.292;2024-03-23T01:33:12;12.60;;;4.43;;
9675;SDS011;4876;42.656;23.292;2024-03-23T01:35:38;11.25;;;4.90;;
9675;SDS011;4876;42.656;23.292;2024-03-23T01:38:03;8.88;;;4.95;;
9675;SDS011;4876;42.656;23.292;2024-03-23T01:40:29;9.07;;;4.13;;
9675;SDS011;4876;42.656;23.292;2024-03-23T01:45:30;7.07;;;3.85;;
9675;SDS011;4876;42.656;23.292;2024-03-23T01:47:56;7.88;;;3.60;;
9675;SDS011;4876;42.656;23.292;2024-03-23T01:50:22;7.13;;;3.53;;
9675;SDS011;4876;42.656;23.292;2024-03-23T01:52:49;10.05;;;3.95;;
9675;SDS011;4876;42.656;23.292;2024-03-23T01:55:15;10.65;;;3.22;;
9675;SDS011;4876;42.656;23.292;2024-03-23T01:57:41;7.72;;;3.40;;
9675;SDS011;4876;42.656;23.292;2024-03-23T02:00:06;8.77;;;4.13;;
9675;SDS011;4876;42.656;23.292;2024-03-23T02:02:33;6.75;;;3.45;;
9675;SDS011;4876;42.656;23.292;2024-03-23T02:04:58;8.45;;;4.10;;
9675;SDS011;4876;42.656;23.292;2024-03-23T02:07:24;5.70;;;3.22;;
9675;SDS011;4876;42.656;23.292;2024-03-23T02:09:50;6.32;;;3.65;;
9675;SDS011;4876;42.656;23.292;2024-03-23T02:12:16;6.60;;;3.95;;
9675;SDS011;4876;42.656;23.292;2024-03-23T02:14:42;9.27;;;4.05;;
9675;SDS011;4876;42.656;23.292;2024-03-23T02:17:08;7.05;;;3.58;;
9675;SDS011;4876;42.656;23.292;2024-03-23T02:19:34;8.55;;;3.78;;
9675;SDS011;4876;42.656;23.292;2024-03-23T02:21:59;7.30;;;3.78;;
9675;SDS011;4876;42.656;23.292;2024-03-23T02:24:25;7.20;;;3.53;;
9675;SDS011;4876;42.656;23.292;2024-03-23T02:26:51;9.73;;;4.07;;
9675;SDS011;4876;42.656;23.292;2024-03-23T02:29:16;9.27;;;3.92;;
9675;SDS011;4876;42.656;23.292;2024-03-23T02:31:42;8.27;;;3.83;;
9675;SDS011;4876;42.656;23.292;2024-03-23T02:34:07;8.70;;;4.35;;
9675;SDS011;4876;42.656;23.292;2024-03-23T02:36:32;11.13;;;4.28;;
9675;SDS011;4876;42.656;23.292;2024-03-23T02:38:58;9.52;;;5.20;;
9675;SDS011;4876;42.656;23.292;2024-03-23T02:41:23;17.05;;;6.13;;
9675;SDS011;4876;42.656;23.292;2024-03-23T02:43:49;13.15;;;6.15;;
9675;SDS011;4876;42.656;23.292;2024-03-23T02:46:15;12.73;;;6.28;;
9675;SDS011;4876;42.656;23.292;2024-03-23T02:48:40;12.90;;;6.70;;
9675;SDS011;4876;42.656;23.292;2024-03-23T02:51:06;16.40;;;6.35;;
9675;SDS011;4876;42.656;23.292;2024-03-23T02:53:31;13.65;;;7.80;;
9675;SDS011;4876;42.656;23.292;2024-03-23T02:55:58;14.57;;;6.25;;
9675;SDS011;4876;42.656;23.292;2024-03-23T02:58:23;10.63;;;5.30;;
9675;SDS011;4876;42.656;23.292;2024-03-23T03:00:49;13.18;;;5.57;;
9675;SDS011;4876;42.656;23.292;2024-03-23T03:03:14;10.27;;;4.10;;
9675;SDS011;4876;42.656;23.292;2024-03-23T03:05:40;8.60;;;4.18;;
9675;SDS011;4876;42.656;23.292;2024-03-23T03:08:06;8.82;;;3.85;;
9675;SDS011;4876;42.656;23.292;2024-03-23T03:10:31;9.38;;;4.25;;
9675;SDS011;4876;42.656;23.292;2024-03-23T03:13:00;10.80;;;5.32;;
9675;SDS011;4876;42.656;23.292;2024-03-23T03:15:25;10.77;;;5.30;;
9675;SDS011;4876;42.656;23.292;2024-03-23T03:17:51;10.48;;;4.70;;
9675;SDS011;4876;42.656;23.292;2024-03-23T03:20:17;10.40;;;4.82;;
9675;SDS011;4876;42.656;23.292;2024-03-23T03:22:43;9.23;;;4.55;;
9675;SDS011;4876;42.656;23.292;2024-03-23T03:25:09;12.40;;;4.65;;
9675;SDS011;4876;42.656;23.292;2024-03-23T03:27:34;10.48;;;5.18;;
9675;SDS011;4876;42.656;23.292;2024-03-23T03:30:00;8.48;;;4.22;;
9675;SDS011;4876;42.656;23.292;2024-03-23T03:32:31;10.93;;;4.70;;
9675;SDS011;4876;42.656;23.292;2024-03-23T03:34:57;12.80;;;5.15;;
9675;SDS011;4876;42.656;23.292;2024-03-23T03:37:23;11.25;;;4.78;;
9675;SDS011;4876;42.656;23.292;2024-03-23T03:39:49;11.35;;;4.95;;
9675;SDS011;4876;42.656;23.292;2024-03-23T03:42:14;14.00;;;5.20;;
9675;SDS011;4876;42.656;23.292;2024-03-23T03:44:40;13.18;;;4.72;;
9675;SDS011;4876;42.656;23.292;2024-03-23T03:47:06;10.93;;;4.72;;
9675;SDS011;4876;42.656;23.292;2024-03-23T03:49:31;10.00;;;4.03;;
9675;SDS011;4876;42.656;23.292;2024-03-23T03:51:57;10.15;;;4.68;;
9675;SDS011;4876;42.656;23.292;2024-03-23T03:54:22;8.73;;;4.00;;
9675;SDS011;4876;42.656;23.292;2024-03-23T03:56:48;10.18;;;4.13;;
9675;SDS011;4876;42.656;23.292;2024-03-23T03:59:15;9.88;;;4.47;;
9675;SDS011;4876;42.656;23.292;2024-03-23T04:01:40;9.88;;;4.10;;
9675;SDS011;4876;42.656;23.292;2024-03-23T04:04:06;9.75;;;3.95;;
9675;SDS011;4876;42.656;23.292;2024-03-23T04:06:32;13.25;;;4.35;;
9675;SDS011;4876;42.656;23.292;2024-03-23T04:08:58;9.35;;;5.53;;
9675;SDS011;4876;42.656;23.292;2024-03-23T04:11:24;12.45;;;5.50;;
9675;SDS011;4876;42.656;23.292;2024-03-23T04:13:49;12.93;;;5.93;;
9675;SDS011;4876;42.656;23.292;2024-03-23T04:16:27;10.07;;;5.05;;
9675;SDS011;4876;42.656;23.292;2024-03-23T04:18:54;11.30;;;5.03;;
9675;SDS011;4876;42.656;23.292;2024-03-23T04:21:20;15.60;;;5.43;;
9675;SDS011;4876;42.656;23.292;2024-03-23T04:23:46;9.45;;;4.68;;
9675;SDS011;4876;42.656;23.292;2024-03-23T04:26:12;12.93;;;5.03;;
9675;SDS011;4876;42.656;23.292;2024-03-23T04:28:37;12.82;;;4.70;;
9675;SDS011;4876;42.656;23.292;2024-03-23T04:31:03;13.68;;;5.63;;
9675;SDS011;4876;42.656;23.292;2024-03-23T04:33:29;11.70;;;5.10;;
9675;SDS011;4876;42.656;23.292;2024-03-23T04:35:55;12.73;;;5.97;;
9675;SDS011;4876;42.656;23.292;2024-03-23T04:38:20;11.82;;;6.03;;
9675;SDS011;4876;42.656;23.292;2024-03-23T04:40:53;13.13;;;5.88;;
9675;SDS011;4876;42.656;23.292;2024-03-23T04:43:22;12.43;;;5.75;;
9675;SDS011;4876;42.656;23.292;2024-03-23T04:45:48;13.82;;;5.63;;
9675;SDS011;4876;42.656;23.292;2024-03-23T04:48:13;14.98;;;5.53;;
9675;SDS011;4876;42.656;23.292;2024-03-23T04:50:39;12.40;;;5.60;;
9675;SDS011;4876;42.656;23.292;2024-03-23T04:53:06;11.63;;;5.65;;
9675;SDS011;4876;42.656;23.292;2024-03-23T04:55:32;12.85;;;6.28;;
9675;SDS011;4876;42.656;23.292;2024-03-23T04:57:57;17.20;;;5.90;;
9675;SDS011;4876;42.656;23.292;2024-03-23T05:00:23;12.02;;;5.80;;
9675;SDS011;4876;42.656;23.292;2024-03-23T05:02:48;12.55;;;6.60;;
9675;SDS011;4876;42.656;23.292;2024-03-23T05:05:14;11.32;;;5.70;;
9675;SDS011;4876;42.656;23.292;2024-03-23T05:07:40;14.70;;;5.97;;
9675;SDS011;4876;42.656;23.292;2024-03-23T05:10:07;14.02;;;6.22;;
9675;SDS011;4876;42.656;23.292;2024-03-23T05:12:36;12.50;;;5.57;;
9675;SDS011;4876;42.656;23.292;2024-03-23T05:15:03;12.15;;;6.18;;
9675;SDS011;4876;42.656;23.292;2024-03-23T05:17:32;15.70;;;6.97;;
9675;SDS011;4876;42.656;23.292;2024-03-23T05:19:58;13.32;;;7.13;;
9675;SDS011;4876;42.656;23.292;2024-03-23T05:22:24;24.00;;;10.02;;
9675;SDS011;4876;42.656;23.292;2024-03-23T05:24:50;16.75;;;8.50;;
9675;SDS011;4876;42.656;23.292;2024-03-23T05:27:15;25.38;;;10.35;;
9675;SDS011;4876;42.656;23.292;2024-03-23T05:29:41;22.58;;;8.65;;
9675;SDS011;4876;42.656;23.292;2024-03-23T05:32:06;18.27;;;7.95;;
9675;SDS011;4876;42.656;23.292;2024-03-23T05:34:32;17.63;;;7.78;;
9675;SDS011;4876;42.656;23.292;2024-03-23T05:36:58;17.45;;;7.63;;
9675;SDS011;4876;42.656;23.292;2024-03-23T05:39:23;15.60;;;7.40;;
9675;SDS011;4876;42.656;23.292;2024-03-23T05:41:49;16.85;;;7.28;;
9675;SDS011;4876;42.656;23.292;2024-03-23T05:44:14;18.55;;;7.65;;
9675;SDS011;4876;42.656;23.292;2024-03-23T05:46:40;16.52;;;7.80;;
9675;SDS011;4876;42.656;23.292;2024-03-23T05:49:06;18.60;;;7.45;;
9675;SDS011;4876;42.656;23.292;2024-03-23T05:51:32;15.10;;;7.20;;
9675;SDS011;4876;42.656;23.292;2024-03-23T05:53:58;18.95;;;7.88;;
9675;SDS011;4876;42.656;23.292;2024-03-23T05:56:23;18.23;;;7.78;;
9675;SDS011;4876;42.656;23.292;2024-03-23T05:58:51;15.45;;;7.65;;
9675;SDS011;4876;42.656;23.292;2024-03-23T06:01:16;16.90;;;8.38;;
9675;SDS011;4876;42.656;23.292;2024-03-23T06:03:42;15.30;;;7.65;;
9675;SDS011;4876;42.656;23.292;2024-03-23T06:06:09;15.18;;;8.00;;
9675;SDS011;4876;42.656;23.292;2024-03-23T06:08:36;20.45;;;8.45;;
9675;SDS011;4876;42.656;23.292;2024-03-23T06:11:02;16.80;;;8.45;;
9675;SDS011;4876;42.656;23.292;2024-03-23T06:13:28;17.55;;;9.00;;
9675;SDS011;4876;42.656;23.292;2024-03-23T06:15:55;18.48;;;8.30;;
9675;SDS011;4876;42.656;23.292;2024-03-23T06:18:20;17.08;;;8.48;;
9675;SDS011;4876;42.656;23.292;2024-03-23T06:20:46;19.02;;;9.43;;
9675;SDS011;4876;42.656;23.292;2024-03-23T06:23:11;17.05;;;8.35;;
9675;SDS011;4876;42.656;23.292;2024-03-23T06:25:38;16.35;;;8.77;;
9675;SDS011;4876;42.656;23.292;2024-03-23T06:28:03;18.83;;;8.85;;
9675;SDS011;4876;42.656;23.292;2024-03-23T06:30:29;16.17;;;8.63;;
9675;SDS011;4876;42.656;23.292;2024-03-23T06:32:56;18.17;;;8.93;;
9675;SDS011;4876;42.656;23.292;2024-03-23T06:35:22;16.40;;;8.63;;
9675;SDS011;4876;42.656;23.292;2024-03-23T06:37:48;20.08;;;9.68;;
9675;SDS011;4876;42.656;23.292;2024-03-23T06:40:13;17.52;;;9.38;;
9675;SDS011;4876;42.656;23.292;2024-03-23T06:42:39;19.88;;;8.45;;
9675;SDS011;4876;42.656;23.292;2024-03-23T06:45:05;19.98;;;8.27;;
9675;SDS011;4876;42.656;23.292;2024-03-23T06:47:31;17.20;;;8.50;;
9675;SDS011;4876;42.656;23.292;2024-03-23T06:49:58;18.63;;;8.30;;
9675;SDS011;4876;42.656;23.292;2024-03-23T06:52:26;19.67;;;8.43;;
9675;SDS011;4876;42.656;23.292;2024-03-23T06:54:53;17.98;;;8.27;;
9675;SDS011;4876;42.656;23.292;2024-03-23T06:57:18;18.00;;;8.27;;
9675;SDS011;4876;42.656;23.292;2024-03-23T06:59:44;16.27;;;8.45;;
9675;SDS011;4876;42.656;23.292;2024-03-23T07:02:09;18.85;;;9.35;;
9675;SDS011;4876;42.656;23.292;2024-03-23T07:04:35;16.70;;;7.80;;
9675;SDS011;4876;42.656;23.292;2024-03-23T07:07:01;15.20;;;7.50;;
9675;SDS011;4876;42.656;23.292;2024-03-23T07:09:28;14.32;;;6.55;;
9675;SDS011;4876;42.656;23.292;2024-03-23T07:11:57;12.77;;;7.13;;
9675;SDS011;4876;42.656;23.292;2024-03-23T07:14:23;16.08;;;7.15;;
9675;SDS011;4876;42.656;23.292;2024-03-23T07:16:49;17.05;;;6.95;;
9675;SDS011;4876;42.656;23.292;2024-03-23T07:19:15;14.00;;;7.13;;
9675;SDS011;4876;42.656;23.292;2024-03-23T07:21:42;15.85;;;7.68;;
9675;SDS011;4876;42.656;23.292;2024-03-23T07:24:08;19.17;;;8.80;;
9675;SDS011;4876;42.656;23.292;2024-03-23T07:26:34;15.77;;;7.80;;
9675;SDS011;4876;42.656;23.292;2024-03-23T07:29:00;16.23;;;7.50;;
9675;SDS011;4876;42.656;23.292;2024-03-23T07:31:27;14.60;;;7.38;;
9675;SDS011;4876;42.656;23.292;2024-03-23T07:33:52;12.52;;;7.47;;
9675;SDS011;4876;42.656;23.292;2024-03-23T07:36:18;16.33;;;7.82;;
9675;SDS011;4876;42.656;23.292;2024-03-23T07:38:43;15.88;;;7.97;;
9675;SDS011;4876;42.656;23.292;2024-03-23T07:41:13;14.00;;;7.82;;
9675;SDS011;4876;42.656;23.292;2024-03-23T07:43:42;15.52;;;7.35;;
9675;SDS011;4876;42.656;23.292;2024-03-23T07:46:08;15.00;;;7.15;;
9675;SDS011;4876;42.656;23.292;2024-03-23T07:48:34;15.88;;;8.05;;
9675;SDS011;4876;42.656;23.292;2024-03-23T07:51:03;19.95;;;8.30;;
9675;SDS011;4876;42.656;23.292;2024-03-23T07:53:29;14.77;;;7.93;;
9675;SDS011;4876;42.656;23.292;2024-03-23T07:58:25;14.00;;;6.63;;
9675;SDS011;4876;42.656;23.292;2024-03-23T08:00:52;17.88;;;8.07;;
9675;SDS011;4876;42.656;23.292;2024-03-23T08:03:21;16.88;;;7.47;;
9675;SDS011;4876;42.656;23.292;2024-03-23T08:05:47;12.40;;;7.50;;
9675;SDS011;4876;42.656;23.292;2024-03-23T08:08:13;19.83;;;7.32;;
9675;SDS011;4876;42.656;23.292;2024-03-23T08:10:51;16.58;;;7.63;;
9675;SDS011;4876;42.656;23.292;2024-03-23T08:13:18;17.77;;;8.05;;
9675;SDS011;4876;42.656;23.292;2024-03-23T08:15:44;15.15;;;7.18;;
9675;SDS011;4876;42.656;23.292;2024-03-23T08:18:13;17.38;;;7.97;;
9675;SDS011;4876;42.656;23.292;2024-03-23T08:20:40;18.33;;;8.85;;
9675;SDS011;4876;42.656;23.292;2024-03-23T08:23:06;14.82;;;7.63;;
9675;SDS011;4876;42.656;23.292;2024-03-23T08:25:32;13.07;;;7.72;;
9675;SDS011;4876;42.656;23.292;2024-03-23T08:27:58;14.32;;;7.93;;
9675;SDS011;4876;42.656;23.292;2024-03-23T08:30:24;16.73;;;8.63;;
9675;SDS011;4876;42.656;23.292;2024-03-23T08:32:49;16.10;;;7.47;;
9675;SDS011;4876;42.656;23.292;2024-03-23T08:35:15;14.18;;;7.68;;
9675;SDS011;4876;42.656;23.292;2024-03-23T08:37:41;19.05;;;8.38;;
9675;SDS011;4876;42.656;23.292;2024-03-23T08:40:06;15.77;;;8.18;;
9675;SDS011;4876;42.656;23.292;2024-03-23T08:42:33;15.05;;;8.32;;
9675;SDS011;4876;42.656;23.292;2024-03-23T08:44:59;17.65;;;8.30;;
9675;SDS011;4876;42.656;23.292;2024-03-23T08:47:24;18.90;;;8.10;;
9675;SDS011;4876;42.656;23.292;2024-03-23T08:49:50;15.15;;;7.60;;
9675;SDS011;4876;42.656;23.292;2024-03-23T08:52:16;15.30;;;8.02;;
9675;SDS011;4876;42.656;23.292;2024-03-23T08:54:41;16.05;;;8.02;;
9675;SDS011;4876;42.656;23.292;2024-03-23T08:57:07;17.70;;;9.52;;
9675;SDS011;4876;42.656;23.292;2024-03-23T08:59:33;17.98;;;8.35;;
9675;SDS011;4876;42.656;23.292;2024-03-23T09:01:59;21.13;;;8.55;;
9675;SDS011;4876;42.656;23.292;2024-03-23T09:04:25;15.50;;;7.88;;
9675;SDS011;4876;42.656;23.292;2024-03-23T09:06:50;16.80;;;7.97;;
9675;SDS011;4876;42.656;23.292;2024-03-23T09:09:16;21.33;;;8.73;;
9675;SDS011;4876;42.656;23.292;2024-03-23T09:11:42;16.90;;;8.70;;
9675;SDS011;4876;42.656;23.292;2024-03-23T09:14:07;19.70;;;8.63;;
9675;SDS011;4876;42.656;23.292;2024-03-23T09:16:34;19.10;;;9.45;;
9675;SDS011;4876;42.656;23.292;2024-03-23T09:19:00;17.95;;;7.90;;
9675;SDS011;4876;42.656;23.292;2024-03-23T09:21:25;23.02;;;8.32;;
9675;SDS011;4876;42.656;23.292;2024-03-23T09:23:51;17.10;;;7.93;;
9675;SDS011;4876;42.656;23.292;2024-03-23T09:26:16;14.68;;;7.80;;
9675;SDS011;4876;42.656;23.292;2024-03-23T09:28:42;17.20;;;8.45;;
9675;SDS011;4876;42.656;23.292;2024-03-23T09:31:08;13.73;;;7.50;;
9675;SDS011;4876;42.656;23.292;2024-03-23T09:33:35;17.45;;;9.18;;
9675;SDS011;4876;42.656;23.292;2024-03-23T09:36:04;17.08;;;8.35;;
9675;SDS011;4876;42.656;23.292;2024-03-23T09:38:31;17.52;;;8.43;;
9675;SDS011;4876;42.656;23.292;2024-03-23T09:40:56;15.13;;;8.00;;
9675;SDS011;4876;42.656;23.292;2024-03-23T09:43:22;16.73;;;8.82;;
9675;SDS011;4876;42.656;23.292;2024-03-23T09:45:48;15.68;;;9.00;;
9675;SDS011;4876;42.656;23.292;2024-03-23T09:48:14;15.93;;;8.25;;
9675;SDS011;4876;42.656;23.292;2024-03-23T09:50:40;16.20;;;7.45;;
9675;SDS011;4876;42.656;23.292;2024-03-23T09:53:10;16.60;;;8.07;;
9675;SDS011;4876;42.656;23.292;2024-03-23T09:55:37;17.98;;;8.20;;
9675;SDS011;4876;42.656;23.292;2024-03-23T09:58:03;19.23;;;7.80;;
9675;SDS011;4876;42.656;23.292;2024-03-23T10:00:30;16.67;;;8.07;;
9675;SDS011;4876;42.656;23.292;2024-03-23T10:03:01;16.45;;;8.25;;
9675;SDS011;4876;42.656;23.292;2024-03-23T10:05:27;12.32;;;7.28;;
9675;SDS011;4876;42.656;23.292;2024-03-23T10:07:54;15.80;;;8.98;;
9675;SDS011;4876;42.656;23.292;2024-03-23T10:10:20;16.38;;;7.78;;
9675;SDS011;4876;42.656;23.292;2024-03-23T10:12:49;15.48;;;7.47;;
9675;SDS011;4876;42.656;23.292;2024-03-23T10:15:18;14.02;;;6.97;;
9675;SDS011;4876;42.656;23.292;2024-03-23T10:17:45;13.63;;;7.03;;
9675;SDS011;4876;42.656;23.292;2024-03-23T10:20:11;13.60;;;6.18;;
9675;SDS011;4876;42.656;23.292;2024-03-23T10:22:37;15.98;;;7.75;;
9675;SDS011;4876;42.656;23.292;2024-03-23T10:25:07;13.25;;;7.05;;
9675;SDS011;4876;42.656;23.292;2024-03-23T10:27:34;16.88;;;6.63;;
9675;SDS011;4876;42.656;23.292;2024-03-23T10:30:09;17.27;;;6.75;;
9675;SDS011;4876;42.656;23.292;2024-03-23T10:32:36;15.60;;;6.55;;
9675;SDS011;4876;42.656;23.292;2024-03-23T10:37:41;12.52;;;6.95;;
9675;SDS011;4876;42.656;23.292;2024-03-23T10:40:08;12.73;;;6.38;;
9675;SDS011;4876;42.656;23.292;2024-03-23T10:42:36;9.80;;;5.78;;
9675;SDS011;4876;42.656;23.292;2024-03-23T10:45:04;12.80;;;5.57;;
9675;SDS011;4876;42.656;23.292;2024-03-23T10:47:30;11.00;;;5.97;;
9675;SDS011;4876;42.656;23.292;2024-03-23T10:49:57;12.02;;;6.07;;
9675;SDS011;4876;42.656;23.292;2024-03-23T10:52:22;10.80;;;6.30;;
9675;SDS011;4876;42.656;23.292;2024-03-23T10:54:49;11.02;;;6.28;;
9675;SDS011;4876;42.656;23.292;2024-03-23T10:57:26;12.30;;;5.80;;
9675;SDS011;4876;42.656;23.292;2024-03-23T11:00:06;14.30;;;5.68;;
9675;SDS011;4876;42.656;23.292;2024-03-23T11:02:33;9.88;;;4.78;;
9675;SDS011;4876;42.656;23.292;2024-03-23T11:04:59;12.25;;;5.60;;
9675;SDS011;4876;42.656;23.292;2024-03-23T11:09:54;9.75;;;4.75;;
9675;SDS011;4876;42.656;23.292;2024-03-23T11:17:18;13.57;;;5.28;;
9675;SDS011;4876;42.656;23.292;2024-03-23T11:19:46;11.90;;;5.20;;
9675;SDS011;4876;42.656;23.292;2024-03-23T11:27:48;9.80;;;4.65;;
9675;SDS011;4876;42.656;23.292;2024-03-23T11:30:22;9.65;;;4.68;;
9675;SDS011;4876;42.656;23.292;2024-03-23T11:32:52;10.50;;;5.63;;
9675;SDS011;4876;42.656;23.292;2024-03-23T11:35:28;10.18;;;5.30;;
9675;SDS011;4876;42.656;23.292;2024-03-23T11:38:12;9.75;;;5.65;;
9675;SDS011;4876;42.656;23.292;2024-03-23T11:40:45;10.88;;;5.50;;
9675;SDS011;4876;42.656;23.292;2024-03-23T11:43:15;13.10;;;5.13;;
9675;SDS011;4876;42.656;23.292;2024-03-23T11:45:43;14.68;;;5.75;;
9675;SDS011;4876;42.656;23.292;2024-03-23T11:48:11;13.55;;;5.20;;
9675;SDS011;4876;42.656;23.292;2024-03-23T11:50:42;9.70;;;5.43;;
9675;SDS011;4876;42.656;23.292;2024-03-23T11:58:16;10.85;;;5.25;;
9675;SDS011;4876;42.656;23.292;2024-03-23T12:00:49;8.05;;;4.22;;
9675;SDS011;4876;42.656;23.292;2024-03-23T12:03:24;8.50;;;4.47;;
9675;SDS011;4876;42.656;23.292;2024-03-23T12:05:51;10.13;;;5.32;;
9675;SDS011;4876;42.656;23.292;2024-03-23T12:10:53;9.23;;;4.82;;
9675;SDS011;4876;42.656;23.292;2024-03-23T12:13:30;7.53;;;4.18;;
9675;SDS011;4876;42.656;23.292;2024-03-23T12:15:57;3.50;;;1.98;;
9675;SDS011;4876;42.656;23.292;2024-03-23T12:18:37;3.83;;;2.35;;
9675;SDS011;4876;42.656;23.292;2024-03-23T12:21:05;4.55;;;1.75;;
9675;SDS011;4876;42.656;23.292;2024-03-23T12:23:31;4.47;;;1.42;;
9675;SDS011;4876;42.656;23.292;2024-03-23T12:25:57;3.15;;;1.33;;
9675;SDS011;4876;42.656;23.292;2024-03-23T12:28:23;4.18;;;1.30;;
9675;SDS011;4876;42.656;23.292;2024-03-23T12:30:48;2.83;;;1.17;;
9675;SDS011;4876;42.656;23.292;2024-03-23T12:33:14;3.65;;;1.27;;
9675;SDS011;4876;42.656;23.292;2024-03-23T12:35:40;1.73;;;0.80;;
9675;SDS011;4876;42.656;23.292;2024-03-23T12:38:05;1.83;;;0.82;;
9675;SDS011;4876;42.656;23.292;2024-03-23T12:40:31;2.08;;;0.90;;
9675;SDS011;4876;42.656;23.292;2024-03-23T12:42:56;2.03;;;0.95;;
9675;SDS011;4876;42.656;23.292;2024-03-23T12:45:22;3.25;;;1.17;;
9675;SDS011;4876;42.656;23.292;2024-03-23T12:47:48;2.83;;;0.98;;
9675;SDS011;4876;42.656;23.292;2024-03-23T12:50:13;2.40;;;0.90;;
9675;SDS011;4876;42.656;23.292;2024-03-23T12:52:39;2.50;;;1.00;;
9675;SDS011;4876;42.656;23.292;2024-03-23T12:55:04;1.70;;;1.02;;
9675;SDS011;4876;42.656;23.292;2024-03-23T12:57:33;1.73;;;0.95;;
9675;SDS011;4876;42.656;23.292;2024-03-23T12:59:59;2.85;;;1.25;;
9675;SDS011;4876;42.656;23.292;2024-03-23T13:02:25;2.28;;;0.95;;
9675;SDS011;4876;42.656;23.292;2024-03-23T13:04:51;3.47;;;1.13;;
9675;SDS011;4876;42.656;23.292;2024-03-23T13:07:19;5.22;;;1.13;;
9675;SDS011;4876;42.656;23.292;2024-03-23T13:09:46;2.67;;;0.65;;
9675;SDS011;4876;42.656;23.292;2024-03-23T13:12:12;1.95;;;0.80;;
9675;SDS011;4876;42.656;23.292;2024-03-23T13:14:38;2.10;;;0.70;;
9675;SDS011;4876;42.656;23.292;2024-03-23T13:17:04;2.88;;;1.20;;
9675;SDS011;4876;42.656;23.292;2024-03-23T13:19:30;4.32;;;1.10;;
9675;SDS011;4876;42.656;23.292;2024-03-23T13:21:57;4.15;;;0.80;;
9675;SDS011;4876;42.656;23.292;2024-03-23T13:24:29;2.45;;;0.93;;
9675;SDS011;4876;42.656;23.292;2024-03-23T13:26:55;1.40;;;0.80;;
9675;SDS011;4876;42.656;23.292;2024-03-23T13:29:22;2.53;;;0.80;;
9675;SDS011;4876;42.656;23.292;2024-03-23T13:31:49;1.73;;;0.90;;
9675;SDS011;4876;42.656;23.292;2024-03-23T13:34:15;2.88;;;1.10;;
9675;SDS011;4876;42.656;23.292;2024-03-23T13:36:45;1.25;;;0.77;;
9675;SDS011;4876;42.656;23.292;2024-03-23T13:39:12;1.58;;;0.75;;
9675;SDS011;4876;42.656;23.292;2024-03-23T13:44:04;2.60;;;1.13;;
9675;SDS011;4876;42.656;23.292;2024-03-23T13:46:33;3.03;;;1.08;;
9675;SDS011;4876;42.656;23.292;2024-03-23T13:48:59;2.17;;;1.00;;
9675;SDS011;4876;42.656;23.292;2024-03-23T13:51:26;3.50;;;1.40;;
9675;SDS011;4876;42.656;23.292;2024-03-23T13:53:54;1.77;;;1.00;;
9675;SDS011;4876;42.656;23.292;2024-03-23T13:56:22;2.70;;;1.10;;
9675;SDS011;4876;42.656;23.292;2024-03-23T13:58:48;3.35;;;1.05;;
9675;SDS011;4876;42.656;23.292;2024-03-23T14:01:14;5.32;;;1.10;;
9675;SDS011;4876;42.656;23.292;2024-03-23T14:03:41;1.70;;;1.00;;
9675;SDS011;4876;42.656;23.292;2024-03-23T14:06:07;2.70;;;0.95;;
9675;SDS011;4876;42.656;23.292;2024-03-23T14:08:37;3.13;;;1.40;;
9675;SDS011;4876;42.656;23.292;2024-03-23T14:11:06;2.47;;;1.08;;
9675;SDS011;4876;42.656;23.292;2024-03-23T14:13:33;2.97;;;1.40;;
9675;SDS011;4876;42.656;23.292;2024-03-23T14:16:00;5.10;;;1.30;;
9675;SDS011;4876;42.656;23.292;2024-03-23T14:18:26;2.72;;;1.02;;
9675;SDS011;4876;42.656;23.292;2024-03-23T14:20:51;2.10;;;1.30;;
9675;SDS011;4876;42.656;23.292;2024-03-23T14:23:23;3.78;;;1.15;;
9675;SDS011;4876;42.656;23.292;2024-03-23T14:25:58;2.25;;;1.10;;
9675;SDS011;4876;42.656;23.292;2024-03-23T14:28:24;2.97;;;0.90;;
9675;SDS011;4876;42.656;23.292;2024-03-23T14:30:50;2.30;;;0.90;;
9675;SDS011;4876;42.656;23.292;2024-03-23T14:33:17;4.10;;;1.10;;
9675;SDS011;4876;42.656;23.292;2024-03-23T14:35:43;3.90;;;1.63;;
9675;SDS011;4876;42.656;23.292;2024-03-23T14:38:17;3.72;;;1.60;;
9675;SDS011;4876;42.656;23.292;2024-03-23T14:40:42;2.60;;;1.58;;
9675;SDS011;4876;42.656;23.292;2024-03-23T14:43:08;3.88;;;2.22;;
9675;SDS011;4876;42.656;23.292;2024-03-23T14:45:33;2.65;;;1.73;;
9675;SDS011;4876;42.656;23.292;2024-03-23T14:47:59;3.15;;;1.77;;
9675;SDS011;4876;42.656;23.292;2024-03-23T14:50:25;2.63;;;1.60;;
9675;SDS011;4876;42.656;23.292;2024-03-23T14:52:51;2.65;;;1.73;;
9675;SDS011;4876;42.656;23.292;2024-03-23T14:55:17;3.47;;;1.45;;
9675;SDS011;4876;42.656;23.292;2024-03-23T14:57:43;3.33;;;1.80;;
9675;SDS011;4876;42.656;23.292;2024-03-23T15:00:08;3.25;;;1.85;;
9675;SDS011;4876;42.656;23.292;2024-03-23T15:02:37;3.40;;;1.88;;
9675;SDS011;4876;42.656;23.292;2024-03-23T15:05:03;5.60;;;2.38;;
9675;SDS011;4876;42.656;23.292;2024-03-23T15:07:33;3.45;;;1.70;;
9675;SDS011;4876;42.656;23.292;2024-03-23T15:09:58;4.30;;;1.92;;
9675;SDS011;4876;42.656;23.292;2024-03-23T15:12:24;4.47;;;1.95;;
9675;SDS011;4876;42.656;23.292;2024-03-23T15:14:49;6.85;;;2.25;;
9675;SDS011;4876;42.656;23.292;2024-03-23T15:17:15;5.43;;;1.98;;
9675;SDS011;4876;42.656;23.292;2024-03-23T15:19:41;3.10;;;1.95;;
9675;SDS011;4876;42.656;23.292;2024-03-23T15:22:07;3.60;;;2.10;;
9675;SDS011;4876;42.656;23.292;2024-03-23T15:24:34;3.75;;;1.80;;
9675;SDS011;4876;42.656;23.292;2024-03-23T15:27:01;4.45;;;1.92;;
9675;SDS011;4876;42.656;23.292;2024-03-23T15:29:28;4.10;;;1.83;;
9675;SDS011;4876;42.656;23.292;2024-03-23T15:31:53;3.50;;;1.92;;
9675;SDS011;4876;42.656;23.292;2024-03-23T15:34:19;2.45;;;1.50;;
9675;SDS011;4876;42.656;23.292;2024-03-23T15:36:47;6.10;;;1.70;;
9675;SDS011;4876;42.656;23.292;2024-03-23T15:39:14;2.92;;;1.55;;
9675;SDS011;4876;42.656;23.292;2024-03-23T15:41:40;5.18;;;1.60;;
9675;SDS011;4876;42.656;23.292;2024-03-23T15:44:05;3.22;;;1.92;;
9675;SDS011;4876;42.656;23.292;2024-03-23T15:46:31;5.15;;;2.30;;
9675;SDS011;4876;42.656;23.292;2024-03-23T15:48:56;4.72;;;2.53;;
9675;SDS011;4876;42.656;23.292;2024-03-23T15:51:22;5.43;;;2.00;;
9675;SDS011;4876;42.656;23.292;2024-03-23T15:53:48;5.05;;;1.73;;
9675;SDS011;4876;42.656;23.292;2024-03-23T15:56:17;5.68;;;1.60;;
9675;SDS011;4876;42.656;23.292;2024-03-23T15:58:43;4.88;;;1.52;;
9675;SDS011;4876;42.656;23.292;2024-03-23T16:01:08;4.95;;;1.70;;
9675;SDS011;4876;42.656;23.292;2024-03-23T16:03:35;6.90;;;1.90;;
9675;SDS011;4876;42.656;23.292;2024-03-23T16:06:03;3.42;;;1.48;;
9675;SDS011;4876;42.656;23.292;2024-03-23T16:08:29;9.30;;;1.60;;
9675;SDS011;4876;42.656;23.292;2024-03-23T16:10:59;6.30;;;2.00;;
9675;SDS011;4876;42.656;23.292;2024-03-23T16:13:28;4.60;;;1.80;;